sensor_id;sensor_type;location;lat;lon;timestamp;P1;durP1;ratioP1;P2;durP2;ratioP2
4758;SDS011;2393;50.560;12.636;2023-08-24T00:00:32;7.80;;;2.63;;
4758;SDS011;2393;50.560;12.636;2023-08-24T00:03:02;3.37;;;3.17;;
4758;SDS011;2393;50.560;12.636;2023-08-24T00:05:32;3.33;;;2.77;;
4758;SDS011;2393;50.560;12.636;2023-08-24T00:08:03;3.03;;;2.87;;
4758;SDS011;2393;50.560;12.636;2023-08-24T00:10:32;3.50;;;3.20;;
4758;SDS011;2393;50.560;12.636;2023-08-24T00:13:00;3.07;;;2.80;;
4758;SDS011;2393;50.560;12.636;2023-08-24T00:15:29;3.00;;;2.80;;
4758;SDS011;2393;50.560;12.636;2023-08-24T00:17:59;3.20;;;2.90;;
4758;SDS011;2393;50.560;12.636;2023-08-24T00:20:28;3.43;;;3.23;;
4758;SDS011;2393;50.560;12.636;2023-08-24T00:22:56;3.00;;;2.80;;
4758;SDS011;2393;50.560;12.636;2023-08-24T00:25:25;2.97;;;2.77;;
4758;SDS011;2393;50.560;12.636;2023-08-24T00:27:53;3.40;;;3.13;;
4758;SDS011;2393;50.560;12.636;2023-08-24T00:30:23;3.10;;;2.90;;
4758;SDS011;2393;50.560;12.636;2023-08-24T00:32:52;6.57;;;2.40;;
4758;SDS011;2393;50.560;12.636;2023-08-24T00:35:22;3.27;;;2.47;;
4758;SDS011;2393;50.560;12.636;2023-08-24T00:37:50;8.70;;;2.47;;
4758;SDS011;2393;50.560;12.636;2023-08-24T00:40:19;6.70;;;2.47;;
4758;SDS011;2393;50.560;12.636;2023-08-24T00:42:48;2.83;;;2.63;;
4758;SDS011;2393;50.560;12.636;2023-08-24T00:45:16;4.47;;;2.57;;
4758;SDS011;2393;50.560;12.636;2023-08-24T00:47:46;2.87;;;2.67;;
4758;SDS011;2393;50.560;12.636;2023-08-24T00:50:16;2.90;;;2.70;;
4758;SDS011;2393;50.560;12.636;2023-08-24T00:52:47;2.97;;;2.77;;
4758;SDS011;2393;50.560;12.636;2023-08-24T00:55:18;2.10;;;2.00;;
4758;SDS011;2393;50.560;12.636;2023-08-24T00:57:48;2.53;;;2.43;;
4758;SDS011;2393;50.560;12.636;2023-08-24T01:00:18;3.40;;;2.83;;
4758;SDS011;2393;50.560;12.636;2023-08-24T01:02:48;6.10;;;2.67;;
4758;SDS011;2393;50.560;12.636;2023-08-24T01:05:17;2.97;;;2.50;;
4758;SDS011;2393;50.560;12.636;2023-08-24T01:07:46;2.90;;;2.70;;
4758;SDS011;2393;50.560;12.636;2023-08-24T01:10:17;3.37;;;2.40;;
4758;SDS011;2393;50.560;12.636;2023-08-24T01:12:52;1.70;;;1.70;;
4758;SDS011;2393;50.560;12.636;2023-08-24T01:15:29;1.93;;;1.83;;
4758;SDS011;2393;50.560;12.636;2023-08-24T01:18:03;9.83;;;1.70;;
4758;SDS011;2393;50.560;12.636;2023-08-24T01:20:34;1.60;;;1.60;;
4758;SDS011;2393;50.560;12.636;2023-08-24T01:23:07;3.80;;;2.10;;
4758;SDS011;2393;50.560;12.636;2023-08-24T01:25:47;2.60;;;2.40;;
4758;SDS011;2393;50.560;12.636;2023-08-24T01:28:20;3.00;;;2.80;;
4758;SDS011;2393;50.560;12.636;2023-08-24T01:30:50;2.43;;;2.33;;
4758;SDS011;2393;50.560;12.636;2023-08-24T01:33:19;2.50;;;2.40;;
4758;SDS011;2393;50.560;12.636;2023-08-24T01:35:48;2.53;;;2.43;;
4758;SDS011;2393;50.560;12.636;2023-08-24T01:38:17;5.33;;;2.20;;
4758;SDS011;2393;50.560;12.636;2023-08-24T01:40:48;2.53;;;2.43;;
4758;SDS011;2393;50.560;12.636;2023-08-24T01:43:24;2.67;;;2.50;;
4758;SDS011;2393;50.560;12.636;2023-08-24T01:46:09;2.90;;;2.70;;
4758;SDS011;2393;50.560;12.636;2023-08-24T01:48:42;2.67;;;2.47;;
4758;SDS011;2393;50.560;12.636;2023-08-24T01:51:11;2.70;;;2.57;;
4758;SDS011;2393;50.560;12.636;2023-08-24T01:53:40;2.70;;;2.60;;
4758;SDS011;2393;50.560;12.636;2023-08-24T01:56:11;6.10;;;3.80;;
4758;SDS011;2393;50.560;12.636;2023-08-24T01:58:42;3.17;;;2.87;;
4758;SDS011;2393;50.560;12.636;2023-08-24T02:01:10;3.50;;;2.60;;
4758;SDS011;2393;50.560;12.636;2023-08-24T02:03:39;3.33;;;2.73;;
4758;SDS011;2393;50.560;12.636;2023-08-24T02:06:08;4.17;;;2.40;;
4758;SDS011;2393;50.560;12.636;2023-08-24T02:08:37;2.30;;;2.10;;
4758;SDS011;2393;50.560;12.636;2023-08-24T02:11:05;2.77;;;2.57;;
4758;SDS011;2393;50.560;12.636;2023-08-24T02:13:34;3.13;;;2.00;;
4758;SDS011;2393;50.560;12.636;2023-08-24T02:16:04;6.60;;;2.57;;
4758;SDS011;2393;50.560;12.636;2023-08-24T02:18:35;3.63;;;2.60;;
4758;SDS011;2393;50.560;12.636;2023-08-24T02:21:07;2.60;;;2.50;;
4758;SDS011;2393;50.560;12.636;2023-08-24T02:23:37;3.10;;;2.90;;
4758;SDS011;2393;50.560;12.636;2023-08-24T02:26:05;10.43;;;3.10;;
4758;SDS011;2393;50.560;12.636;2023-08-24T02:28:36;3.03;;;2.83;;
4758;SDS011;2393;50.560;12.636;2023-08-24T02:31:06;4.93;;;2.70;;
4758;SDS011;2393;50.560;12.636;2023-08-24T02:33:35;3.43;;;3.17;;
4758;SDS011;2393;50.560;12.636;2023-08-24T02:36:04;2.10;;;2.00;;
4758;SDS011;2393;50.560;12.636;2023-08-24T02:38:32;3.00;;;2.10;;
4758;SDS011;2393;50.560;12.636;2023-08-24T02:41:01;15.43;;;3.20;;
4758;SDS011;2393;50.560;12.636;2023-08-24T02:43:30;2.83;;;2.60;;
4758;SDS011;2393;50.560;12.636;2023-08-24T02:46:00;6.70;;;2.60;;
4758;SDS011;2393;50.560;12.636;2023-08-24T02:48:32;2.20;;;2.10;;
4758;SDS011;2393;50.560;12.636;2023-08-24T02:51:01;5.90;;;2.10;;
4758;SDS011;2393;50.560;12.636;2023-08-24T02:53:31;3.80;;;1.93;;
4758;SDS011;2393;50.560;12.636;2023-08-24T02:56:00;3.00;;;2.70;;
4758;SDS011;2393;50.560;12.636;2023-08-24T02:58:29;5.23;;;2.77;;
4758;SDS011;2393;50.560;12.636;2023-08-24T03:00:58;2.73;;;2.63;;
4758;SDS011;2393;50.560;12.636;2023-08-24T03:03:26;2.60;;;2.43;;
4758;SDS011;2393;50.560;12.636;2023-08-24T03:05:57;2.23;;;2.13;;
4758;SDS011;2393;50.560;12.636;2023-08-24T03:08:28;3.30;;;3.00;;
4758;SDS011;2393;50.560;12.636;2023-08-24T03:10:57;3.10;;;2.90;;
4758;SDS011;2393;50.560;12.636;2023-08-24T03:13:26;2.40;;;2.30;;
4758;SDS011;2393;50.560;12.636;2023-08-24T03:15:55;2.87;;;2.73;;
4758;SDS011;2393;50.560;12.636;2023-08-24T03:18:27;2.70;;;2.50;;
4758;SDS011;2393;50.560;12.636;2023-08-24T03:20:57;2.90;;;2.70;;
4758;SDS011;2393;50.560;12.636;2023-08-24T03:23:25;2.63;;;2.50;;
4758;SDS011;2393;50.560;12.636;2023-08-24T03:25:55;1.83;;;1.73;;
4758;SDS011;2393;50.560;12.636;2023-08-24T03:28:24;2.37;;;2.27;;
4758;SDS011;2393;50.560;12.636;2023-08-24T03:30:52;2.93;;;2.70;;
4758;SDS011;2393;50.560;12.636;2023-08-24T03:33:22;3.57;;;2.10;;
4758;SDS011;2393;50.560;12.636;2023-08-24T03:35:51;3.33;;;2.90;;
4758;SDS011;2393;50.560;12.636;2023-08-24T03:38:21;2.20;;;2.10;;
4758;SDS011;2393;50.560;12.636;2023-08-24T03:40:51;2.37;;;2.27;;
4758;SDS011;2393;50.560;12.636;2023-08-24T03:43:19;2.50;;;2.10;;
4758;SDS011;2393;50.560;12.636;2023-08-24T03:45:47;3.17;;;2.97;;
4758;SDS011;2393;50.560;12.636;2023-08-24T03:48:16;3.40;;;2.60;;
4758;SDS011;2393;50.560;12.636;2023-08-24T03:50:46;5.30;;;2.90;;
4758;SDS011;2393;50.560;12.636;2023-08-24T03:53:14;3.07;;;2.87;;
4758;SDS011;2393;50.560;12.636;2023-08-24T03:55:46;6.83;;;2.60;;
4758;SDS011;2393;50.560;12.636;2023-08-24T03:58:16;2.60;;;2.50;;
4758;SDS011;2393;50.560;12.636;2023-08-24T04:00:45;3.63;;;3.33;;
4758;SDS011;2393;50.560;12.636;2023-08-24T04:03:13;3.00;;;2.80;;
4758;SDS011;2393;50.560;12.636;2023-08-24T04:05:42;2.87;;;2.67;;
4758;SDS011;2393;50.560;12.636;2023-08-24T04:08:10;2.80;;;2.67;;
4758;SDS011;2393;50.560;12.636;2023-08-24T04:10:39;2.47;;;2.37;;
4758;SDS011;2393;50.560;12.636;2023-08-24T04:13:08;2.23;;;2.13;;
4758;SDS011;2393;50.560;12.636;2023-08-24T04:15:37;1.83;;;1.80;;
4758;SDS011;2393;50.560;12.636;2023-08-24T04:18:06;2.47;;;2.37;;
4758;SDS011;2393;50.560;12.636;2023-08-24T04:20:34;2.90;;;2.70;;
4758;SDS011;2393;50.560;12.636;2023-08-24T04:23:03;2.93;;;2.00;;
4758;SDS011;2393;50.560;12.636;2023-08-24T04:25:33;3.50;;;3.20;;
4758;SDS011;2393;50.560;12.636;2023-08-24T04:28:02;3.33;;;3.13;;
4758;SDS011;2393;50.560;12.636;2023-08-24T04:30:32;2.63;;;2.53;;
4758;SDS011;2393;50.560;12.636;2023-08-24T04:33:00;2.87;;;2.67;;
4758;SDS011;2393;50.560;12.636;2023-08-24T04:35:33;3.00;;;2.80;;
4758;SDS011;2393;50.560;12.636;2023-08-24T04:38:02;3.27;;;3.00;;
4758;SDS011;2393;50.560;12.636;2023-08-24T04:40:43;3.23;;;2.93;;
4758;SDS011;2393;50.560;12.636;2023-08-24T04:43:17;3.57;;;3.30;;
4758;SDS011;2393;50.560;12.636;2023-08-24T04:45:49;2.63;;;2.43;;
4758;SDS011;2393;50.560;12.636;2023-08-24T04:48:19;3.00;;;2.70;;
4758;SDS011;2393;50.560;12.636;2023-08-24T04:50:47;3.50;;;3.27;;
4758;SDS011;2393;50.560;12.636;2023-08-24T04:53:17;3.40;;;3.10;;
4758;SDS011;2393;50.560;12.636;2023-08-24T04:55:46;2.90;;;2.80;;
4758;SDS011;2393;50.560;12.636;2023-08-24T04:58:14;8.37;;;3.57;;
4758;SDS011;2393;50.560;12.636;2023-08-24T05:00:43;3.13;;;2.93;;
4758;SDS011;2393;50.560;12.636;2023-08-24T05:03:13;3.13;;;2.93;;
4758;SDS011;2393;50.560;12.636;2023-08-24T05:05:41;4.83;;;3.57;;
4758;SDS011;2393;50.560;12.636;2023-08-24T05:08:10;4.03;;;3.20;;
4758;SDS011;2393;50.560;12.636;2023-08-24T05:10:39;3.80;;;3.50;;
4758;SDS011;2393;50.560;12.636;2023-08-24T05:13:07;5.30;;;4.80;;
4758;SDS011;2393;50.560;12.636;2023-08-24T05:15:36;3.63;;;3.43;;
4758;SDS011;2393;50.560;12.636;2023-08-24T05:18:04;5.10;;;4.70;;
4758;SDS011;2393;50.560;12.636;2023-08-24T05:20:34;3.77;;;3.50;;
4758;SDS011;2393;50.560;12.636;2023-08-24T05:23:02;4.13;;;2.50;;
4758;SDS011;2393;50.560;12.636;2023-08-24T05:25:31;2.87;;;2.70;;
4758;SDS011;2393;50.560;12.636;2023-08-24T05:28:00;2.67;;;2.57;;
4758;SDS011;2393;50.560;12.636;2023-08-24T05:30:29;3.00;;;2.60;;
4758;SDS011;2393;50.560;12.636;2023-08-24T05:32:58;2.30;;;2.20;;
4758;SDS011;2393;50.560;12.636;2023-08-24T05:35:26;3.20;;;2.07;;
4758;SDS011;2393;50.560;12.636;2023-08-24T05:37:56;1.90;;;1.57;;
4758;SDS011;2393;50.560;12.636;2023-08-24T05:40:24;1.80;;;1.70;;
4758;SDS011;2393;50.560;12.636;2023-08-24T05:42:53;4.00;;;2.87;;
4758;SDS011;2393;50.560;12.636;2023-08-24T05:45:21;2.00;;;1.90;;
4758;SDS011;2393;50.560;12.636;2023-08-24T05:47:52;2.20;;;1.63;;
4758;SDS011;2393;50.560;12.636;2023-08-24T05:50:21;2.40;;;1.63;;
4758;SDS011;2393;50.560;12.636;2023-08-24T05:52:49;3.90;;;1.90;;
4758;SDS011;2393;50.560;12.636;2023-08-24T05:55:19;3.30;;;1.80;;
4758;SDS011;2393;50.560;12.636;2023-08-24T05:57:47;2.00;;;1.90;;
4758;SDS011;2393;50.560;12.636;2023-08-24T06:00:16;5.17;;;2.40;;
4758;SDS011;2393;50.560;12.636;2023-08-24T06:02:45;4.23;;;2.00;;
4758;SDS011;2393;50.560;12.636;2023-08-24T06:05:14;5.27;;;1.50;;
4758;SDS011;2393;50.560;12.636;2023-08-24T06:07:44;2.10;;;1.60;;
4758;SDS011;2393;50.560;12.636;2023-08-24T06:10:13;2.47;;;2.33;;
4758;SDS011;2393;50.560;12.636;2023-08-24T06:12:42;2.23;;;1.30;;
4758;SDS011;2393;50.560;12.636;2023-08-24T06:15:11;1.53;;;1.47;;
4758;SDS011;2393;50.560;12.636;2023-08-24T06:17:40;2.30;;;2.10;;
4758;SDS011;2393;50.560;12.636;2023-08-24T06:20:09;3.30;;;2.03;;
4758;SDS011;2393;50.560;12.636;2023-08-24T06:22:39;2.17;;;1.97;;
4758;SDS011;2393;50.560;12.636;2023-08-24T06:25:08;7.30;;;1.87;;
4758;SDS011;2393;50.560;12.636;2023-08-24T06:27:37;2.13;;;2.03;;
4758;SDS011;2393;50.560;12.636;2023-08-24T06:30:07;3.20;;;1.67;;
4758;SDS011;2393;50.560;12.636;2023-08-24T06:32:36;2.10;;;2.00;;
4758;SDS011;2393;50.560;12.636;2023-08-24T06:35:04;3.10;;;1.97;;
4758;SDS011;2393;50.560;12.636;2023-08-24T06:37:33;3.90;;;1.80;;
4758;SDS011;2393;50.560;12.636;2023-08-24T06:40:02;4.60;;;2.40;;
4758;SDS011;2393;50.560;12.636;2023-08-24T06:42:32;2.57;;;2.37;;
4758;SDS011;2393;50.560;12.636;2023-08-24T06:45:00;19.10;;;2.47;;
4758;SDS011;2393;50.560;12.636;2023-08-24T06:47:30;2.40;;;2.07;;
4758;SDS011;2393;50.560;12.636;2023-08-24T06:49:58;3.53;;;2.50;;
4758;SDS011;2393;50.560;12.636;2023-08-24T06:52:26;7.47;;;3.67;;
4758;SDS011;2393;50.560;12.636;2023-08-24T06:54:55;14.20;;;3.67;;
4758;SDS011;2393;50.560;12.636;2023-08-24T06:57:23;5.23;;;2.80;;
4758;SDS011;2393;50.560;12.636;2023-08-24T06:59:51;3.40;;;1.97;;
4758;SDS011;2393;50.560;12.636;2023-08-24T07:02:20;5.63;;;2.33;;
4758;SDS011;2393;50.560;12.636;2023-08-24T07:04:50;2.97;;;2.67;;
4758;SDS011;2393;50.560;12.636;2023-08-24T07:07:18;2.17;;;1.97;;
4758;SDS011;2393;50.560;12.636;2023-08-24T07:09:47;3.20;;;1.70;;
4758;SDS011;2393;50.560;12.636;2023-08-24T07:12:15;3.27;;;1.80;;
4758;SDS011;2393;50.560;12.636;2023-08-24T07:14:43;1.73;;;1.50;;
4758;SDS011;2393;50.560;12.636;2023-08-24T07:17:12;5.10;;;1.77;;
4758;SDS011;2393;50.560;12.636;2023-08-24T07:19:40;3.00;;;2.70;;
4758;SDS011;2393;50.560;12.636;2023-08-24T07:22:10;16.63;;;1.87;;
4758;SDS011;2393;50.560;12.636;2023-08-24T07:24:38;1.97;;;1.80;;
4758;SDS011;2393;50.560;12.636;2023-08-24T07:27:12;3.23;;;1.90;;
4758;SDS011;2393;50.560;12.636;2023-08-24T07:29:40;1.90;;;1.80;;
4758;SDS011;2393;50.560;12.636;2023-08-24T07:32:09;2.00;;;1.90;;
4758;SDS011;2393;50.560;12.636;2023-08-24T07:34:38;2.23;;;2.13;;
4758;SDS011;2393;50.560;12.636;2023-08-24T07:37:06;1.70;;;1.60;;
4758;SDS011;2393;50.560;12.636;2023-08-24T07:39:37;4.43;;;1.90;;
4758;SDS011;2393;50.560;12.636;2023-08-24T07:42:05;1.90;;;1.80;;
4758;SDS011;2393;50.560;12.636;2023-08-24T07:44:34;2.23;;;2.00;;
4758;SDS011;2393;50.560;12.636;2023-08-24T07:47:02;2.33;;;2.13;;
4758;SDS011;2393;50.560;12.636;2023-08-24T07:49:31;2.60;;;2.00;;
4758;SDS011;2393;50.560;12.636;2023-08-24T07:51:59;5.00;;;2.33;;
4758;SDS011;2393;50.560;12.636;2023-08-24T07:54:28;3.83;;;1.70;;
4758;SDS011;2393;50.560;12.636;2023-08-24T07:56:57;2.20;;;1.83;;
4758;SDS011;2393;50.560;12.636;2023-08-24T07:59:26;4.03;;;2.10;;
4758;SDS011;2393;50.560;12.636;2023-08-24T08:01:54;6.73;;;2.03;;
4758;SDS011;2393;50.560;12.636;2023-08-24T08:04:22;7.60;;;2.23;;
4758;SDS011;2393;50.560;12.636;2023-08-24T08:06:51;3.10;;;1.50;;
4758;SDS011;2393;50.560;12.636;2023-08-24T08:09:19;2.83;;;1.53;;
4758;SDS011;2393;50.560;12.636;2023-08-24T08:11:48;2.37;;;1.90;;
4758;SDS011;2393;50.560;12.636;2023-08-24T08:14:18;5.03;;;2.50;;
4758;SDS011;2393;50.560;12.636;2023-08-24T08:16:47;4.07;;;1.80;;
4758;SDS011;2393;50.560;12.636;2023-08-24T08:19:16;2.07;;;1.97;;
4758;SDS011;2393;50.560;12.636;2023-08-24T08:21:46;4.57;;;1.87;;
4758;SDS011;2393;50.560;12.636;2023-08-24T08:24:17;1.73;;;1.47;;
4758;SDS011;2393;50.560;12.636;2023-08-24T08:26:51;2.00;;;1.90;;
4758;SDS011;2393;50.560;12.636;2023-08-24T08:29:22;2.20;;;2.00;;
4758;SDS011;2393;50.560;12.636;2023-08-24T08:31:50;6.97;;;2.73;;
4758;SDS011;2393;50.560;12.636;2023-08-24T08:34:19;3.70;;;2.00;;
4758;SDS011;2393;50.560;12.636;2023-08-24T08:36:47;3.60;;;2.10;;
4758;SDS011;2393;50.560;12.636;2023-08-24T08:39:16;2.50;;;2.30;;
4758;SDS011;2393;50.560;12.636;2023-08-24T08:41:47;5.27;;;2.13;;
4758;SDS011;2393;50.560;12.636;2023-08-24T08:44:16;3.20;;;2.70;;
4758;SDS011;2393;50.560;12.636;2023-08-24T08:46:48;1.87;;;1.77;;
4758;SDS011;2393;50.560;12.636;2023-08-24T08:49:17;2.10;;;1.90;;
4758;SDS011;2393;50.560;12.636;2023-08-24T08:51:47;1.70;;;1.60;;
4758;SDS011;2393;50.560;12.636;2023-08-24T08:54:18;4.43;;;1.13;;
4758;SDS011;2393;50.560;12.636;2023-08-24T08:56:46;9.23;;;1.83;;
4758;SDS011;2393;50.560;12.636;2023-08-24T08:59:14;1.17;;;1.07;;
4758;SDS011;2393;50.560;12.636;2023-08-24T09:01:43;2.93;;;2.10;;
4758;SDS011;2393;50.560;12.636;2023-08-24T09:04:15;1.93;;;1.83;;
4758;SDS011;2393;50.560;12.636;2023-08-24T09:06:44;8.10;;;1.50;;
4758;SDS011;2393;50.560;12.636;2023-08-24T09:09:12;3.90;;;2.47;;
4758;SDS011;2393;50.560;12.636;2023-08-24T09:11:43;4.53;;;1.73;;
4758;SDS011;2393;50.560;12.636;2023-08-24T09:14:14;3.70;;;1.83;;
4758;SDS011;2393;50.560;12.636;2023-08-24T09:16:42;1.50;;;1.40;;
4758;SDS011;2393;50.560;12.636;2023-08-24T09:19:11;4.23;;;2.00;;
4758;SDS011;2393;50.560;12.636;2023-08-24T09:21:41;8.93;;;2.13;;
4758;SDS011;2393;50.560;12.636;2023-08-24T09:24:10;1.43;;;1.33;;
4758;SDS011;2393;50.560;12.636;2023-08-24T09:26:39;3.27;;;1.83;;
4758;SDS011;2393;50.560;12.636;2023-08-24T09:29:13;1.60;;;1.50;;
4758;SDS011;2393;50.560;12.636;2023-08-24T09:31:42;6.70;;;1.80;;
4758;SDS011;2393;50.560;12.636;2023-08-24T09:34:11;2.30;;;1.83;;
4758;SDS011;2393;50.560;12.636;2023-08-24T09:36:42;2.03;;;1.93;;
4758;SDS011;2393;50.560;12.636;2023-08-24T09:39:16;9.83;;;1.70;;
4758;SDS011;2393;50.560;12.636;2023-08-24T09:41:46;2.07;;;1.87;;
4758;SDS011;2393;50.560;12.636;2023-08-24T09:44:16;2.00;;;1.90;;
4758;SDS011;2393;50.560;12.636;2023-08-24T09:46:45;1.90;;;1.80;;
4758;SDS011;2393;50.560;12.636;2023-08-24T09:49:13;3.13;;;1.80;;
4758;SDS011;2393;50.560;12.636;2023-08-24T09:51:44;7.03;;;1.97;;
4758;SDS011;2393;50.560;12.636;2023-08-24T09:54:13;1.87;;;1.53;;
4758;SDS011;2393;50.560;12.636;2023-08-24T09:56:47;5.50;;;2.40;;
4758;SDS011;2393;50.560;12.636;2023-08-24T09:59:18;2.37;;;1.50;;
4758;SDS011;2393;50.560;12.636;2023-08-24T10:01:51;2.60;;;1.73;;
4758;SDS011;2393;50.560;12.636;2023-08-24T10:04:22;1.93;;;1.83;;
4758;SDS011;2393;50.560;12.636;2023-08-24T10:06:54;3.40;;;2.10;;
4758;SDS011;2393;50.560;12.636;2023-08-24T10:09:26;1.90;;;1.73;;
4758;SDS011;2393;50.560;12.636;2023-08-24T10:12:00;2.97;;;1.67;;
4758;SDS011;2393;50.560;12.636;2023-08-24T10:14:32;4.67;;;1.67;;
4758;SDS011;2393;50.560;12.636;2023-08-24T10:17:10;3.80;;;2.30;;
4758;SDS011;2393;50.560;12.636;2023-08-24T10:19:41;3.30;;;2.10;;
4758;SDS011;2393;50.560;12.636;2023-08-24T10:22:12;2.97;;;2.17;;
4758;SDS011;2393;50.560;12.636;2023-08-24T10:24:42;2.97;;;2.10;;
4758;SDS011;2393;50.560;12.636;2023-08-24T10:27:11;4.10;;;1.50;;
4758;SDS011;2393;50.560;12.636;2023-08-24T10:29:41;2.07;;;1.93;;
4758;SDS011;2393;50.560;12.636;2023-08-24T10:32:09;3.97;;;2.30;;
4758;SDS011;2393;50.560;12.636;2023-08-24T10:34:38;3.70;;;2.23;;
4758;SDS011;2393;50.560;12.636;2023-08-24T10:37:08;1.87;;;1.70;;
4758;SDS011;2393;50.560;12.636;2023-08-24T10:39:43;1.37;;;1.27;;
4758;SDS011;2393;50.560;12.636;2023-08-24T10:42:13;3.10;;;2.30;;
4758;SDS011;2393;50.560;12.636;2023-08-24T10:44:43;3.63;;;1.57;;
4758;SDS011;2393;50.560;12.636;2023-08-24T10:47:13;5.50;;;2.03;;
4758;SDS011;2393;50.560;12.636;2023-08-24T10:49:42;4.40;;;2.73;;
4758;SDS011;2393;50.560;12.636;2023-08-24T10:52:19;5.50;;;2.37;;
4758;SDS011;2393;50.560;12.636;2023-08-24T10:54:50;1.93;;;1.83;;
4758;SDS011;2393;50.560;12.636;2023-08-24T10:57:19;3.90;;;1.80;;
4758;SDS011;2393;50.560;12.636;2023-08-24T10:59:59;2.37;;;2.27;;
4758;SDS011;2393;50.560;12.636;2023-08-24T11:02:42;2.60;;;2.40;;
4758;SDS011;2393;50.560;12.636;2023-08-24T11:05:15;4.47;;;2.40;;
4758;SDS011;2393;50.560;12.636;2023-08-24T11:07:52;2.53;;;2.33;;
4758;SDS011;2393;50.560;12.636;2023-08-24T11:10:24;3.80;;;2.57;;
4758;SDS011;2393;50.560;12.636;2023-08-24T11:13:06;8.53;;;2.40;;
4758;SDS011;2393;50.560;12.636;2023-08-24T11:15:39;3.90;;;2.47;;
4758;SDS011;2393;50.560;12.636;2023-08-24T11:18:13;3.23;;;2.13;;
4758;SDS011;2393;50.560;12.636;2023-08-24T11:20:43;2.60;;;2.43;;
4758;SDS011;2393;50.560;12.636;2023-08-24T11:23:12;2.37;;;2.27;;
4758;SDS011;2393;50.560;12.636;2023-08-24T11:25:43;2.93;;;2.00;;
4758;SDS011;2393;50.560;12.636;2023-08-24T11:28:16;1.90;;;1.80;;
4758;SDS011;2393;50.560;12.636;2023-08-24T11:30:46;4.63;;;2.80;;
4758;SDS011;2393;50.560;12.636;2023-08-24T11:33:15;2.93;;;2.63;;
4758;SDS011;2393;50.560;12.636;2023-08-24T11:35:44;2.80;;;2.60;;
4758;SDS011;2393;50.560;12.636;2023-08-24T11:38:13;5.47;;;2.00;;
4758;SDS011;2393;50.560;12.636;2023-08-24T11:40:41;2.50;;;2.40;;
4758;SDS011;2393;50.560;12.636;2023-08-24T11:43:11;3.67;;;2.50;;
4758;SDS011;2393;50.560;12.636;2023-08-24T11:45:39;5.93;;;2.60;;
4758;SDS011;2393;50.560;12.636;2023-08-24T11:48:08;2.23;;;2.03;;
4758;SDS011;2393;50.560;12.636;2023-08-24T11:50:38;3.80;;;1.80;;
4758;SDS011;2393;50.560;12.636;2023-08-24T11:53:06;3.07;;;2.47;;
4758;SDS011;2393;50.560;12.636;2023-08-24T11:55:39;5.27;;;1.90;;
4758;SDS011;2393;50.560;12.636;2023-08-24T11:58:26;1.80;;;1.70;;
4758;SDS011;2393;50.560;12.636;2023-08-24T12:00:55;2.23;;;2.03;;
4758;SDS011;2393;50.560;12.636;2023-08-24T12:03:23;4.90;;;3.23;;
4758;SDS011;2393;50.560;12.636;2023-08-24T12:05:51;2.73;;;2.07;;
4758;SDS011;2393;50.560;12.636;2023-08-24T12:08:20;2.60;;;2.43;;
4758;SDS011;2393;50.560;12.636;2023-08-24T12:10:49;2.90;;;2.70;;
4758;SDS011;2393;50.560;12.636;2023-08-24T12:13:17;5.63;;;2.40;;
4758;SDS011;2393;50.560;12.636;2023-08-24T12:15:47;3.13;;;2.10;;
4758;SDS011;2393;50.560;12.636;2023-08-24T12:18:17;2.30;;;2.10;;
4758;SDS011;2393;50.560;12.636;2023-08-24T12:20:46;6.40;;;2.60;;
4758;SDS011;2393;50.560;12.636;2023-08-24T12:23:15;2.70;;;2.50;;
4758;SDS011;2393;50.560;12.636;2023-08-24T12:25:44;2.00;;;1.90;;
4758;SDS011;2393;50.560;12.636;2023-08-24T12:28:13;2.07;;;1.97;;
4758;SDS011;2393;50.560;12.636;2023-08-24T12:30:43;2.93;;;2.30;;
4758;SDS011;2393;50.560;12.636;2023-08-24T12:33:20;2.40;;;2.20;;
4758;SDS011;2393;50.560;12.636;2023-08-24T12:35:50;4.00;;;2.67;;
4758;SDS011;2393;50.560;12.636;2023-08-24T12:38:18;2.27;;;2.13;;
4758;SDS011;2393;50.560;12.636;2023-08-24T12:40:47;2.80;;;2.23;;
4758;SDS011;2393;50.560;12.636;2023-08-24T12:43:16;6.40;;;2.23;;
4758;SDS011;2393;50.560;12.636;2023-08-24T12:45:44;5.17;;;2.33;;
4758;SDS011;2393;50.560;12.636;2023-08-24T12:48:14;2.63;;;2.43;;
4758;SDS011;2393;50.560;12.636;2023-08-24T12:50:43;2.00;;;1.90;;
4758;SDS011;2393;50.560;12.636;2023-08-24T12:53:11;2.40;;;2.20;;
4758;SDS011;2393;50.560;12.636;2023-08-24T12:55:39;2.50;;;2.03;;
4758;SDS011;2393;50.560;12.636;2023-08-24T12:58:08;2.13;;;2.03;;
4758;SDS011;2393;50.560;12.636;2023-08-24T13:00:36;7.07;;;2.70;;
4758;SDS011;2393;50.560;12.636;2023-08-24T13:03:07;1.90;;;1.80;;
4758;SDS011;2393;50.560;12.636;2023-08-24T13:05:37;4.43;;;2.00;;
4758;SDS011;2393;50.560;12.636;2023-08-24T13:08:05;2.83;;;1.80;;
4758;SDS011;2393;50.560;12.636;2023-08-24T13:10:33;3.90;;;2.00;;
4758;SDS011;2393;50.560;12.636;2023-08-24T13:13:03;4.83;;;2.10;;
4758;SDS011;2393;50.560;12.636;2023-08-24T13:15:31;4.03;;;1.77;;
4758;SDS011;2393;50.560;12.636;2023-08-24T13:18:00;4.73;;;2.00;;
4758;SDS011;2393;50.560;12.636;2023-08-24T13:20:28;3.23;;;2.50;;
4758;SDS011;2393;50.560;12.636;2023-08-24T13:22:58;6.73;;;2.10;;
4758;SDS011;2393;50.560;12.636;2023-08-24T13:25:26;2.43;;;2.23;;
4758;SDS011;2393;50.560;12.636;2023-08-24T13:27:55;2.50;;;2.30;;
4758;SDS011;2393;50.560;12.636;2023-08-24T13:30:23;3.43;;;2.00;;
4758;SDS011;2393;50.560;12.636;2023-08-24T13:32:52;5.67;;;2.20;;
4758;SDS011;2393;50.560;12.636;2023-08-24T13:35:20;3.83;;;2.53;;
4758;SDS011;2393;50.560;12.636;2023-08-24T13:37:49;2.60;;;2.20;;
4758;SDS011;2393;50.560;12.636;2023-08-24T13:40:19;2.20;;;2.00;;
4758;SDS011;2393;50.560;12.636;2023-08-24T13:42:47;1.90;;;1.80;;
4758;SDS011;2393;50.560;12.636;2023-08-24T13:45:16;5.77;;;2.37;;
4758;SDS011;2393;50.560;12.636;2023-08-24T13:47:46;3.20;;;2.27;;
4758;SDS011;2393;50.560;12.636;2023-08-24T13:50:14;3.20;;;2.10;;
4758;SDS011;2393;50.560;12.636;2023-08-24T13:52:42;3.60;;;2.27;;
4758;SDS011;2393;50.560;12.636;2023-08-24T13:55:11;1.80;;;1.70;;
4758;SDS011;2393;50.560;12.636;2023-08-24T13:57:41;1.73;;;1.53;;
4758;SDS011;2393;50.560;12.636;2023-08-24T14:00:10;1.47;;;1.37;;
4758;SDS011;2393;50.560;12.636;2023-08-24T14:02:39;5.50;;;1.60;;
4758;SDS011;2393;50.560;12.636;2023-08-24T14:05:08;10.03;;;2.20;;
4758;SDS011;2393;50.560;12.636;2023-08-24T14:07:37;1.90;;;1.80;;
4758;SDS011;2393;50.560;12.636;2023-08-24T14:10:06;2.10;;;1.97;;
4758;SDS011;2393;50.560;12.636;2023-08-24T14:12:35;1.97;;;1.87;;
4758;SDS011;2393;50.560;12.636;2023-08-24T14:15:05;3.60;;;2.33;;
4758;SDS011;2393;50.560;12.636;2023-08-24T14:17:35;3.60;;;1.90;;
4758;SDS011;2393;50.560;12.636;2023-08-24T14:20:03;1.57;;;1.47;;
4758;SDS011;2393;50.560;12.636;2023-08-24T14:22:32;3.23;;;1.97;;
4758;SDS011;2393;50.560;12.636;2023-08-24T14:25:00;6.33;;;1.50;;
4758;SDS011;2393;50.560;12.636;2023-08-24T14:27:29;1.90;;;1.60;;
4758;SDS011;2393;50.560;12.636;2023-08-24T14:29:57;2.50;;;2.30;;
4758;SDS011;2393;50.560;12.636;2023-08-24T14:32:27;2.57;;;1.77;;
4758;SDS011;2393;50.560;12.636;2023-08-24T14:34:55;1.37;;;1.27;;
4758;SDS011;2393;50.560;12.636;2023-08-24T14:37:24;2.93;;;1.80;;
4758;SDS011;2393;50.560;12.636;2023-08-24T14:39:52;2.70;;;1.63;;
4758;SDS011;2393;50.560;12.636;2023-08-24T14:42:20;4.63;;;2.50;;
4758;SDS011;2393;50.560;12.636;2023-08-24T14:44:49;2.37;;;1.57;;
4758;SDS011;2393;50.560;12.636;2023-08-24T14:47:17;2.50;;;1.13;;
4758;SDS011;2393;50.560;12.636;2023-08-24T14:49:48;2.07;;;1.97;;
4758;SDS011;2393;50.560;12.636;2023-08-24T14:52:17;4.90;;;2.00;;
4758;SDS011;2393;50.560;12.636;2023-08-24T14:54:45;2.30;;;2.10;;
4758;SDS011;2393;50.560;12.636;2023-08-24T14:57:14;1.70;;;1.60;;
4758;SDS011;2393;50.560;12.636;2023-08-24T14:59:43;3.53;;;1.90;;
4758;SDS011;2393;50.560;12.636;2023-08-24T15:02:11;4.00;;;2.00;;
4758;SDS011;2393;50.560;12.636;2023-08-24T15:04:40;3.23;;;1.50;;
4758;SDS011;2393;50.560;12.636;2023-08-24T15:07:10;20.07;;;2.30;;
4758;SDS011;2393;50.560;12.636;2023-08-24T15:09:38;3.17;;;1.93;;
4758;SDS011;2393;50.560;12.636;2023-08-24T15:12:07;4.53;;;1.83;;
4758;SDS011;2393;50.560;12.636;2023-08-24T15:14:35;2.77;;;1.83;;